Weather at Fua'amotu International Airport

Public forecast

Using degrees Celsius for public forecast. Weather courtesy of forecast.io.

Current aviation weather report (METAR) for Fua'amotu International Airport

Retrieved 2022/06/24 23:00 UTC (9 minutes ago):

NFTF 242300Z 10011G22KT 9999 FEW012 BKN140 25/19 Q1020

Aviation forecast (TAF) for Fua'amotu International Airport

Retrieved 2022/06/24 18:11 UTC (5 hours ago):

TAF NFTF 241707Z 2418/2518 11012KT 9999 FEW017 BKN030 PROB30 TEMPO 2418/2503 12015G25KT